createdAt,value
2018-02-01T00:10:39.371Z,1.5
2018-02-01T00:21:27.250Z,1.4
2018-02-01T00:32:15.433Z,1.4
2018-02-01T00:42:29.317Z,1.4
2018-02-01T00:53:14.721Z,1.3
2018-02-01T01:03:28.142Z,1.2
2018-02-01T01:14:16.641Z,1.1
2018-02-01T01:24:30.378Z,1.1
2018-02-01T01:35:23.746Z,1.0
2018-02-01T01:46:08.636Z,1.0
2018-02-01T01:57:04.750Z,1.0
2018-02-01T02:07:18.973Z,1.0
2018-02-01T02:17:32.925Z,0.9
2018-02-01T02:27:47.112Z,0.9
2018-02-01T02:38:32.593Z,0.8
2018-02-01T02:48:56.770Z,0.8
2018-02-01T03:00:18.418Z,0.7
2018-02-01T03:11:03.847Z,0.8
2018-02-01T03:21:22.661Z,0.8
2018-02-01T03:32:07.995Z,0.7
2018-02-01T03:43:00.675Z,0.7
2018-02-01T03:53:46.735Z,0.8
2018-02-01T04:04:01.084Z,0.7
2018-02-01T04:14:15.142Z,0.7
2018-02-01T04:24:29.381Z,0.7
2018-02-01T04:45:00.043Z,0.8
2018-02-01T04:55:47.677Z,0.9
2018-02-01T05:06:35.916Z,0.9
2018-02-01T05:17:23.956Z,0.9
2018-02-01T05:27:49.176Z,1.0
2018-02-01T05:38:13.723Z,0.9
2018-02-01T05:49:21.718Z,0.8
2018-02-01T06:00:09.003Z,0.8
2018-02-01T06:10:57.423Z,0.8
2018-02-01T06:21:47.030Z,0.7
2018-02-01T06:32:00.922Z,0.7
2018-02-01T06:42:15.060Z,0.7
2018-02-01T06:52:34.540Z,0.6
2018-02-01T07:02:48.480Z,0.5
2018-02-01T07:13:36.418Z,0.4
2018-02-01T07:24:24.596Z,0.4
2018-02-01T07:34:38.403Z,0.4
2018-02-01T07:44:51.854Z,0.4
2018-02-01T07:55:06.963Z,0.4
2018-02-01T08:05:21.330Z,0.5
2018-02-01T08:15:35.722Z,0.7
2018-02-01T08:25:48.140Z,1.2
2018-02-01T08:36:35.142Z,3.3
2018-02-01T08:46:48.699Z,3.3
2018-02-01T08:57:33.142Z,4.1
2018-02-01T09:18:03.359Z,3.9
2018-02-01T09:28:48.653Z,3.6
2018-02-01T09:39:33.971Z,3.6
2018-02-01T09:50:19.343Z,3.6
2018-02-01T10:00:31.131Z,3.6
2018-02-01T10:10:48.013Z,3.6
2018-02-01T10:21:02.697Z,3.5
2018-02-01T10:32:08.175Z,3.3
2018-02-01T10:42:22.479Z,3.2
2018-02-01T10:53:20.246Z,3.1
2018-02-01T11:03:33.970Z,3.1
2018-02-01T11:14:18.690Z,3.1
2018-02-01T11:24:33.280Z,3.1
2018-02-01T11:45:17.471Z,3.1
2018-02-01T11:55:49.035Z,3.2
2018-02-01T12:16:54.750Z,3.2
2018-02-01T12:27:30.140Z,3.3
2018-02-01T12:37:50.635Z,3.3
2018-02-01T12:48:42.295Z,3.6
2018-02-01T12:59:46.662Z,3.7
2018-02-01T13:10:34.404Z,3.8
2018-02-01T13:20:49.559Z,3.8
2018-02-01T13:31:09.581Z,3.8
2018-02-01T13:41:24.347Z,3.8
2018-02-01T13:51:38.590Z,3.9
2018-02-01T14:02:24.665Z,3.8
2018-02-01T14:13:11.310Z,3.8
2018-02-01T14:24:10.164Z,3.7
2018-02-01T14:35:08.978Z,3.8
2018-02-01T14:45:30.728Z,3.7
2018-02-01T15:06:02.836Z,3.7
2018-02-01T15:29:01.188Z,3.5
2018-02-01T15:40:09.713Z,3.5
2018-02-01T15:50:55.098Z,3.5
2018-02-01T16:02:18.103Z,3.5
2018-02-01T16:13:03.654Z,3.4
2018-02-01T16:23:18.066Z,3.4
2018-02-01T16:33:30.554Z,3.3
2018-02-01T16:43:44.530Z,3.2
2018-02-01T16:54:30.109Z,2.9
2018-02-01T17:04:44.706Z,2.9
2018-02-01T17:16:04.122Z,2.7
2018-02-01T17:26:51.514Z,2.4
2018-02-01T17:37:39.073Z,2.2
2018-02-01T17:59:38.866Z,2.1
2018-02-01T18:09:59.681Z,2.0
2018-02-01T18:21:51.769Z,2.0
2018-02-01T18:32:07.310Z,1.9
2018-02-01T18:42:21.615Z,1.9
2018-02-01T18:52:49.061Z,1.8
2018-02-01T19:04:03.495Z,1.8
2018-02-01T19:15:50.178Z,1.7
2018-02-01T19:37:06.517Z,1.6
2018-02-01T19:48:19.051Z,1.5
2018-02-01T19:59:19.804Z,1.4
2018-02-01T20:11:06.350Z,1.3
2018-02-01T20:45:55.308Z,1.2
2018-02-01T20:57:46.813Z,1.2
2018-02-01T21:09:51.262Z,1.2
2018-02-01T21:20:37.375Z,1.2
2018-02-01T21:31:23.039Z,1.2
2018-02-01T21:41:37.148Z,1.2
2018-02-01T21:51:51.204Z,1.2
2018-02-01T22:02:06.076Z,1.1
2018-02-01T22:12:19.879Z,1.1
2018-02-01T22:22:34.594Z,1.1
2018-02-01T22:33:21.582Z,1.3
2018-02-01T22:44:21.420Z,1.4
2018-02-01T22:55:08.049Z,1.5
2018-02-01T23:11:11.226Z,1.6
2018-02-01T23:22:02.993Z,1.6
2018-02-01T23:32:54.776Z,1.6
2018-02-01T23:43:42.713Z,1.6
2018-02-01T23:54:30.655Z,1.5
